createdAt,value
2018-11-14T00:00:59.507Z,13.97
2018-11-14T00:03:27.531Z,16.63
2018-11-14T00:05:55.608Z,21.27
2018-11-14T00:08:23.577Z,18.50
2018-11-14T00:10:51.746Z,20.97
2018-11-14T00:13:19.862Z,16.87
2018-11-14T00:15:47.922Z,15.70
2018-11-14T00:18:15.922Z,16.23
2018-11-14T00:20:43.941Z,13.80
2018-11-14T00:23:11.941Z,18.77
2018-11-14T00:25:39.946Z,14.43
2018-11-14T00:28:07.976Z,16.07
2018-11-14T00:30:35.949Z,20.17
2018-11-14T00:33:03.956Z,17.87
2018-11-14T00:35:31.977Z,17.60
2018-11-14T00:38:00.036Z,19.33
2018-11-14T00:40:28.025Z,15.97
2018-11-14T00:42:56.002Z,20.10
2018-11-14T00:45:23.981Z,17.53
2018-11-14T00:47:52.147Z,13.90
2018-11-14T00:50:20.706Z,18.30
2018-11-14T00:52:48.723Z,17.90
2018-11-14T00:55:18.891Z,15.17
2018-11-14T00:57:48.040Z,23.50
2018-11-14T01:00:19.016Z,21.30
2018-11-14T01:02:47.208Z,18.00
2018-11-14T01:05:16.236Z,17.30
2018-11-14T01:07:44.306Z,14.73
2018-11-14T01:10:14.168Z,17.67
2018-11-14T01:12:42.617Z,15.17
2018-11-14T01:15:13.091Z,15.03
2018-11-14T01:17:41.417Z,15.37
2018-11-14T01:20:11.457Z,14.97
2018-11-14T01:22:39.765Z,19.60
2018-11-14T01:25:09.036Z,18.53
2018-11-14T01:27:37.023Z,20.20
2018-11-14T01:30:08.350Z,16.20
2018-11-14T01:32:36.400Z,15.50
2018-11-14T01:35:05.213Z,16.33
2018-11-14T01:37:33.244Z,18.10
2018-11-14T01:40:01.165Z,14.97
2018-11-14T01:42:29.151Z,11.77
2018-11-14T01:45:13.860Z,15.33
2018-11-14T01:47:41.880Z,21.77
2018-11-14T01:50:10.337Z,13.63
2018-11-14T01:52:38.983Z,16.93
2018-11-14T01:55:08.314Z,17.40
2018-11-14T01:57:36.269Z,15.50
2018-11-14T02:00:05.599Z,17.97
2018-11-14T02:02:33.592Z,17.00
2018-11-14T02:05:01.526Z,16.70
2018-11-14T02:07:29.500Z,16.70
2018-11-14T02:09:57.485Z,17.57
2018-11-14T02:12:25.420Z,14.53
2018-11-14T02:14:53.379Z,13.90
2018-11-14T02:17:21.348Z,12.87
2018-11-14T02:19:49.331Z,19.23
2018-11-14T02:22:17.295Z,14.27
2018-11-14T02:24:45.357Z,18.97
2018-11-14T02:27:13.273Z,17.00
2018-11-14T02:29:41.291Z,19.60
2018-11-14T02:32:09.251Z,17.57
2018-11-14T02:34:37.241Z,13.23
2018-11-14T02:37:05.205Z,16.50
2018-11-14T02:39:33.215Z,17.97
2018-11-14T02:42:01.448Z,19.87
2018-11-14T02:44:29.435Z,11.87
2018-11-14T02:46:57.437Z,21.13
2018-11-14T02:49:25.427Z,15.07
2018-11-14T02:51:53.374Z,16.23
2018-11-14T02:54:21.338Z,13.27
2018-11-14T02:56:49.271Z,19.00
2018-11-14T02:59:17.223Z,11.27
2018-11-14T03:01:45.161Z,12.60
2018-11-14T03:04:13.157Z,18.53
2018-11-14T03:06:41.122Z,14.27
2018-11-14T03:09:09.157Z,16.00
2018-11-14T03:11:37.167Z,15.50
2018-11-14T03:14:05.898Z,15.63
2018-11-14T03:16:33.876Z,13.13
2018-11-14T03:19:01.787Z,12.37
2018-11-14T03:21:29.744Z,13.27
2018-11-14T03:23:57.700Z,11.80
2018-11-14T03:26:25.561Z,11.83
2018-11-14T03:28:53.504Z,14.63
2018-11-14T03:31:21.344Z,12.53
2018-11-14T03:33:49.201Z,13.03
2018-11-14T03:36:18.188Z,13.33
2018-11-14T03:38:46.395Z,16.57
2018-11-14T03:41:14.255Z,16.40
2018-11-14T03:43:42.079Z,20.70
2018-11-14T03:46:09.944Z,11.97
2018-11-14T03:48:37.750Z,14.20
2018-11-14T03:51:05.720Z,13.20
2018-11-14T03:53:33.622Z,14.20
2018-11-14T03:56:01.537Z,13.37
2018-11-14T03:58:29.422Z,11.43
2018-11-14T04:00:57.312Z,16.30
2018-11-14T04:03:25.146Z,12.30
2018-11-14T04:05:57.592Z,13.73
2018-11-14T04:08:25.687Z,14.83
2018-11-14T04:10:53.547Z,11.30
2018-11-14T04:13:21.445Z,17.70
2018-11-14T04:15:49.457Z,9.23
2018-11-14T04:18:17.303Z,12.30
2018-11-14T04:20:45.190Z,12.27
2018-11-14T04:23:13.038Z,12.47
2018-11-14T04:25:41.136Z,18.13
2018-11-14T04:28:09.181Z,13.60
2018-11-14T04:30:37.242Z,10.47
2018-11-14T04:33:05.539Z,13.47
2018-11-14T04:35:33.602Z,13.63
2018-11-14T04:38:01.635Z,12.70
2018-11-14T04:40:29.706Z,9.90
2018-11-14T04:42:57.650Z,12.37
2018-11-14T04:45:26.526Z,10.70
2018-11-14T04:47:54.774Z,13.00
2018-11-14T04:50:24.757Z,10.93
2018-11-14T04:52:53.024Z,9.87
2018-11-14T04:55:22.759Z,10.47
2018-11-14T04:57:51.127Z,7.67
2018-11-14T05:00:20.374Z,10.43
2018-11-14T05:02:49.027Z,12.33
2018-11-14T05:05:18.642Z,13.27
2018-11-14T05:07:47.135Z,11.63
2018-11-14T05:10:17.542Z,17.37
2018-11-14T05:12:46.259Z,11.13
2018-11-14T05:15:25.264Z,14.87
2018-11-14T05:17:53.897Z,10.60
2018-11-14T05:20:22.716Z,13.87
2018-11-14T05:22:51.424Z,13.23
2018-11-14T05:25:20.005Z,14.80
2018-11-14T05:27:48.058Z,22.17
2018-11-14T05:30:18.576Z,12.37
2018-11-14T05:32:48.023Z,19.13
2018-11-14T05:35:16.617Z,9.97
2018-11-14T05:37:45.416Z,11.37
2018-11-14T05:40:16.174Z,11.30
2018-11-14T05:42:45.340Z,13.20
2018-11-14T05:45:17.859Z,15.83
2018-11-14T05:47:46.598Z,11.87
2018-11-14T05:50:17.668Z,14.83
2018-11-14T05:52:46.602Z,10.10
2018-11-14T05:55:15.599Z,9.57
2018-11-14T05:57:44.141Z,13.83
2018-11-14T06:00:16.306Z,15.63
2018-11-14T06:02:46.257Z,11.07
2018-11-14T06:05:14.783Z,13.03
2018-11-14T06:07:43.455Z,12.87
2018-11-14T06:10:12.820Z,10.63
2018-11-14T06:12:42.139Z,15.60
2018-11-14T06:15:13.680Z,8.77
2018-11-14T06:17:43.164Z,7.67
2018-11-14T06:20:13.618Z,13.13
2018-11-14T06:22:43.000Z,14.97
2018-11-14T06:25:21.455Z,13.23
2018-11-14T06:27:51.073Z,11.87
2018-11-14T06:30:20.013Z,12.17
2018-11-14T06:32:48.807Z,14.67
2018-11-14T06:35:18.082Z,14.20
2018-11-14T06:37:47.187Z,11.77
2018-11-14T06:40:15.656Z,9.70
2018-11-14T06:42:44.752Z,15.03
2018-11-14T06:45:15.342Z,14.77
2018-11-14T06:47:46.260Z,11.73
2018-11-14T06:50:15.163Z,11.63
2018-11-14T06:52:44.384Z,10.73
2018-11-14T06:55:15.107Z,10.83
2018-11-14T06:57:43.743Z,14.33
2018-11-14T07:00:16.082Z,13.13
2018-11-14T07:02:45.642Z,11.07
2018-11-14T07:05:15.563Z,16.57
2018-11-14T07:07:44.655Z,13.23
2018-11-14T07:10:14.929Z,14.27
2018-11-14T07:12:43.552Z,10.27
2018-11-14T07:15:14.068Z,13.23
2018-11-14T07:17:43.208Z,13.07
2018-11-14T07:20:20.046Z,8.23
2018-11-14T07:22:48.628Z,10.07
2018-11-14T07:25:17.143Z,8.87
2018-11-14T07:27:45.776Z,8.73
2018-11-14T07:30:17.335Z,12.10
2018-11-14T07:32:47.337Z,10.67
2018-11-14T07:35:16.430Z,8.07
2018-11-14T07:38:52.321Z,6.50
2018-11-14T07:41:29.850Z,9.90
2018-11-14T07:43:58.446Z,11.43
2018-11-14T07:46:28.377Z,9.17
2018-11-14T07:48:57.040Z,9.37
2018-11-14T07:51:25.644Z,9.37
2018-11-14T07:53:54.216Z,12.73
2018-11-14T07:56:22.649Z,7.37
2018-11-14T07:58:51.331Z,7.80
2018-11-14T08:01:19.811Z,12.80
2018-11-14T08:03:48.807Z,8.17
2018-11-14T08:06:17.270Z,14.47
2018-11-14T08:08:46.211Z,10.70
2018-11-14T08:11:14.711Z,7.90
2018-11-14T08:13:44.986Z,12.80
2018-11-14T08:16:14.095Z,8.43
2018-11-14T08:18:42.877Z,7.73
2018-11-14T08:21:11.478Z,10.83
2018-11-14T08:23:40.009Z,8.07
2018-11-14T08:26:08.637Z,7.43
2018-11-14T08:28:37.072Z,18.17
2018-11-14T08:31:05.532Z,8.70
2018-11-14T08:33:33.961Z,6.23
2018-11-14T08:36:02.597Z,11.33
2018-11-14T08:38:31.081Z,7.57
2018-11-14T08:40:59.898Z,8.80
2018-11-14T08:43:28.375Z,12.77
2018-11-14T08:45:57.016Z,10.47
2018-11-14T08:48:25.668Z,10.47
2018-11-14T08:50:54.345Z,10.27
2018-11-14T08:53:22.895Z,13.10
2018-11-14T08:55:51.381Z,13.40
2018-11-14T08:58:19.777Z,9.40
2018-11-14T09:00:48.193Z,8.30
2018-11-14T09:03:16.613Z,8.33
2018-11-14T09:05:45.113Z,7.97
2018-11-14T09:08:13.554Z,11.27
2018-11-14T09:10:42.054Z,13.53
2018-11-14T09:13:15.359Z,10.60
2018-11-14T09:15:44.177Z,7.00
2018-11-14T09:18:12.890Z,10.70
2018-11-14T09:20:41.474Z,13.17
2018-11-14T09:23:10.032Z,10.97
2018-11-14T09:25:38.516Z,8.87
2018-11-14T09:28:07.016Z,9.70
2018-11-14T09:30:35.420Z,8.33
2018-11-14T09:33:03.861Z,9.13
2018-11-14T09:35:32.334Z,7.80
2018-11-14T09:38:01.397Z,8.07
2018-11-14T09:40:30.481Z,8.77
2018-11-14T09:42:58.925Z,10.13
2018-11-14T09:45:29.474Z,13.50
2018-11-14T09:47:58.193Z,7.07
2018-11-14T09:50:28.873Z,11.10
2018-11-14T09:52:58.833Z,10.90
2018-11-14T09:55:27.292Z,9.50
2018-11-14T09:57:55.743Z,9.13
2018-11-14T10:00:25.693Z,9.90
2018-11-14T10:02:55.825Z,9.50
2018-11-14T10:05:24.831Z,7.67
2018-11-14T10:07:53.402Z,7.47
2018-11-14T10:10:22.603Z,7.93
2018-11-14T10:12:51.463Z,9.07
2018-11-14T10:15:23.193Z,12.07
2018-11-14T10:17:51.908Z,9.23
2018-11-14T10:20:21.685Z,9.67
2018-11-14T10:22:50.466Z,10.40
2018-11-14T10:25:19.143Z,7.53
2018-11-14T10:27:48.229Z,12.90
2018-11-14T10:30:18.779Z,7.73
2018-11-14T10:32:47.849Z,9.60
2018-11-14T10:35:16.276Z,10.90
2018-11-14T10:37:44.957Z,9.67
2018-11-14T10:40:18.885Z,10.13
2018-11-14T10:42:47.608Z,10.10
2018-11-14T10:45:17.464Z,9.50
2018-11-14T10:47:45.996Z,7.97
2018-11-14T10:50:17.047Z,8.03
2018-11-14T10:52:45.586Z,5.73
2018-11-14T10:55:14.965Z,7.10
2018-11-14T10:57:43.543Z,9.63
2018-11-14T11:00:19.337Z,12.63
2018-11-14T11:02:53.347Z,11.07
2018-11-14T11:06:30.894Z,11.53
2018-11-14T11:09:04.683Z,7.93
2018-11-14T11:11:38.504Z,9.10
2018-11-14T11:14:12.265Z,10.77
2018-11-14T11:16:47.994Z,8.07
2018-11-14T11:19:18.117Z,9.80
2018-11-14T11:21:47.047Z,8.13
2018-11-14T11:24:17.048Z,7.00
2018-11-14T11:26:45.551Z,6.57
2018-11-14T11:29:14.089Z,9.30
2018-11-14T11:31:42.570Z,9.03
2018-11-14T11:34:11.827Z,12.03
2018-11-14T11:36:40.687Z,7.00
2018-11-14T11:39:14.266Z,10.10
2018-11-14T11:41:43.262Z,13.97
2018-11-14T11:44:12.400Z,6.13
2018-11-14T11:46:41.905Z,5.47
2018-11-14T11:49:11.025Z,8.57
2018-11-14T11:51:39.678Z,11.63
2018-11-14T11:54:08.703Z,9.03
2018-11-14T11:56:37.670Z,7.17
2018-11-14T11:59:07.092Z,8.27
2018-11-14T12:01:35.703Z,7.20
2018-11-14T12:04:04.541Z,8.13
2018-11-14T12:06:32.877Z,6.57
2018-11-14T12:09:01.488Z,11.97
2018-11-14T12:11:29.968Z,6.17
2018-11-14T12:13:58.650Z,7.20
2018-11-14T12:16:27.226Z,7.60
2018-11-14T12:18:56.341Z,5.97
2018-11-14T12:21:24.786Z,9.17
2018-11-14T12:23:53.219Z,5.90
2018-11-14T12:26:21.883Z,7.00
2018-11-14T12:28:50.321Z,5.77
2018-11-14T12:31:19.204Z,4.73
2018-11-14T12:33:48.166Z,6.33
2018-11-14T12:36:25.169Z,5.17
2018-11-14T12:38:54.144Z,7.17
2018-11-14T12:41:27.461Z,5.67
2018-11-14T12:43:56.280Z,4.97
2018-11-14T12:46:25.121Z,4.63
2018-11-14T12:48:53.621Z,7.13
2018-11-14T12:51:21.969Z,3.43
2018-11-14T12:53:50.441Z,4.70
2018-11-14T12:56:19.023Z,6.37
2018-11-14T12:58:47.526Z,6.80
2018-11-14T13:01:16.081Z,4.63
2018-11-14T13:03:44.462Z,6.90
2018-11-14T13:09:10.172Z,6.10
2018-11-14T13:11:40.910Z,3.23
2018-11-14T13:14:11.210Z,8.83
2018-11-14T13:16:40.673Z,7.13
2018-11-14T13:19:13.680Z,6.63
2018-11-14T13:21:47.361Z,5.17
2018-11-14T13:24:20.160Z,4.43
2018-11-14T13:26:50.741Z,3.67
2018-11-14T13:29:24.583Z,4.63
2018-11-14T13:31:56.051Z,4.93
2018-11-14T13:34:27.754Z,8.97
2018-11-14T13:37:01.466Z,4.83
2018-11-14T13:39:41.307Z,8.10
2018-11-14T13:42:14.641Z,7.87
2018-11-14T13:44:49.226Z,6.83
2018-11-14T13:47:22.051Z,2.97
2018-11-14T13:49:55.338Z,4.80
2018-11-14T13:52:29.766Z,3.80
2018-11-14T13:55:08.124Z,4.10
2018-11-14T13:57:36.960Z,4.37
2018-11-14T14:00:07.303Z,3.80
2018-11-14T14:02:35.669Z,6.60
2018-11-14T14:05:04.448Z,3.77
2018-11-14T14:07:33.091Z,8.77
2018-11-14T14:10:01.703Z,2.63
2018-11-14T14:12:30.327Z,6.23
2018-11-14T14:14:58.967Z,7.83
2018-11-14T14:17:27.641Z,9.13
2018-11-14T14:19:57.504Z,3.97
2018-11-14T14:22:26.230Z,6.80
2018-11-14T14:24:54.683Z,4.13
2018-11-14T14:27:23.321Z,6.70
2018-11-14T14:29:53.520Z,4.83
2018-11-14T14:32:23.210Z,3.83
2018-11-14T14:34:51.702Z,2.10
2018-11-14T14:37:20.598Z,3.40
2018-11-14T14:39:50.325Z,11.47
2018-11-14T14:42:18.823Z,5.80
2018-11-14T14:44:47.345Z,4.93
2018-11-14T14:47:17.710Z,4.10
2018-11-14T14:49:46.384Z,5.23
2018-11-14T14:52:18.103Z,7.60
2018-11-14T14:54:54.790Z,4.53
2018-11-14T14:57:23.785Z,4.00
2018-11-14T15:00:21.827Z,7.50
2018-11-14T15:02:50.863Z,7.80
2018-11-14T15:05:28.188Z,6.37
2018-11-14T15:07:56.823Z,4.77
2018-11-14T15:10:25.282Z,7.67
2018-11-14T15:12:54.348Z,8.23
2018-11-14T15:15:22.898Z,6.13
2018-11-14T15:17:58.387Z,6.40
2018-11-14T15:20:27.694Z,9.27
2018-11-14T15:22:56.244Z,10.07
2018-11-14T15:25:25.467Z,5.73
2018-11-14T15:27:56.149Z,7.27
2018-11-14T15:30:38.923Z,9.00
2018-11-14T15:33:07.733Z,8.40
2018-11-14T15:35:36.544Z,7.63
2018-11-14T15:38:05.200Z,9.07
2018-11-14T15:40:43.975Z,13.83
2018-11-14T15:43:13.108Z,11.17
2018-11-14T15:45:42.127Z,8.67
2018-11-14T15:48:10.621Z,7.40
2018-11-14T15:50:39.929Z,7.53
2018-11-14T15:53:10.222Z,8.73
2018-11-14T15:55:39.086Z,5.60
2018-11-14T15:58:07.986Z,6.40
2018-11-14T16:00:36.789Z,6.10
2018-11-14T16:03:06.387Z,3.93
2018-11-14T16:05:37.244Z,7.27
2018-11-14T16:08:06.122Z,7.13
2018-11-14T16:10:35.920Z,13.17
2018-11-14T16:13:05.891Z,8.07
2018-11-14T16:15:36.061Z,12.30
2018-11-14T16:18:05.167Z,11.93
2018-11-14T16:20:34.610Z,6.70
2018-11-14T16:23:04.069Z,6.00
2018-11-14T16:25:32.935Z,9.57
2018-11-14T16:28:02.204Z,9.43
2018-11-14T16:30:32.135Z,8.70
2018-11-14T16:33:03.142Z,6.60
2018-11-14T16:35:32.003Z,6.63
2018-11-14T16:38:00.801Z,8.67
2018-11-14T16:40:31.008Z,6.53
2018-11-14T16:43:00.849Z,5.80
2018-11-14T16:45:29.488Z,7.03
2018-11-14T16:47:58.260Z,6.90
2018-11-14T16:50:27.331Z,8.80
2018-11-14T16:52:56.309Z,12.17
2018-11-14T16:55:25.259Z,13.97
2018-11-14T16:57:55.756Z,11.47
2018-11-14T17:00:28.703Z,13.50
2018-11-14T17:02:57.322Z,11.57
2018-11-14T17:05:26.965Z,14.87
2018-11-14T17:07:55.490Z,15.83
2018-11-14T17:10:24.389Z,13.17
2018-11-14T17:12:55.462Z,18.83
2018-11-14T17:15:25.369Z,14.63
2018-11-14T17:17:54.989Z,14.47
2018-11-14T17:20:23.905Z,14.80
2018-11-14T17:22:53.561Z,17.17
2018-11-14T17:25:22.341Z,16.83
2018-11-14T17:27:51.074Z,19.27
2018-11-14T17:30:21.284Z,13.77
2018-11-14T17:32:49.944Z,21.70
2018-11-14T17:35:18.803Z,15.47
2018-11-14T17:37:47.668Z,17.63
2018-11-14T17:40:20.640Z,21.80
2018-11-14T17:42:50.226Z,17.30
2018-11-14T17:45:21.181Z,17.67
2018-11-14T17:47:50.879Z,15.33
2018-11-14T17:50:23.475Z,21.00
2018-11-14T17:52:52.870Z,13.60
2018-11-14T17:55:22.641Z,14.97
2018-11-14T17:57:51.541Z,16.33
2018-11-14T18:00:21.607Z,14.10
2018-11-14T18:02:50.342Z,15.83
2018-11-14T18:05:21.132Z,15.87
2018-11-14T18:07:50.747Z,17.93
2018-11-14T18:10:22.602Z,16.17
2018-11-14T18:12:52.161Z,16.33
2018-11-14T18:15:21.151Z,14.73
2018-11-14T18:17:50.805Z,17.97
2018-11-14T18:20:20.969Z,16.23
2018-11-14T18:22:50.268Z,16.77
2018-11-14T18:25:18.966Z,17.93
2018-11-14T18:27:47.702Z,16.90
2018-11-14T18:30:19.630Z,17.03
2018-11-14T18:32:56.767Z,17.83
2018-11-14T18:35:26.207Z,16.40
2018-11-14T18:37:55.960Z,14.87
2018-11-14T18:40:26.500Z,17.87
2018-11-14T18:42:55.441Z,16.57
2018-11-14T18:45:27.548Z,14.93
2018-11-14T18:47:57.100Z,12.33
2018-11-14T18:50:26.086Z,11.40
2018-11-14T18:52:54.659Z,13.80
2018-11-14T18:55:24.920Z,14.60
2018-11-14T18:57:53.487Z,14.10
2018-11-14T19:00:24.861Z,14.47
2018-11-14T19:02:53.549Z,19.13
2018-11-14T19:05:22.263Z,18.87
2018-11-14T19:07:50.912Z,14.43
2018-11-14T19:10:21.545Z,19.90
2018-11-14T19:12:50.799Z,14.20
2018-11-14T19:15:23.041Z,16.53
2018-11-14T19:17:52.043Z,15.33
2018-11-14T19:20:22.385Z,14.97
2018-11-14T19:22:51.240Z,14.47
2018-11-14T19:25:22.142Z,16.27
2018-11-14T19:27:50.795Z,15.17
2018-11-14T19:30:22.686Z,10.50
2018-11-14T19:32:52.345Z,14.07
2018-11-14T19:35:21.384Z,10.77
2018-11-14T19:37:51.119Z,12.17
2018-11-14T19:40:22.729Z,15.03
2018-11-14T19:42:53.647Z,12.77
2018-11-14T19:45:24.758Z,10.37
2018-11-14T19:47:53.698Z,12.23
2018-11-14T19:50:23.259Z,12.13
2018-11-14T19:52:51.916Z,12.30
2018-11-14T19:55:21.948Z,11.00
2018-11-14T19:57:51.979Z,11.53
2018-11-14T20:00:24.201Z,10.83
2018-11-14T20:02:53.820Z,11.10
2018-11-14T20:05:22.823Z,12.37
2018-11-14T20:07:51.776Z,10.53
2018-11-14T20:10:21.672Z,9.13
2018-11-14T20:12:51.080Z,12.10
2018-11-14T20:15:21.048Z,11.50
2018-11-14T20:17:53.408Z,12.77
2018-11-14T20:20:23.376Z,12.27
2018-11-14T20:22:51.936Z,11.07
2018-11-14T20:25:20.545Z,9.57
2018-11-14T20:27:49.135Z,11.33
2018-11-14T20:30:20.082Z,14.07
2018-11-14T20:32:49.464Z,14.17
2018-11-14T20:35:18.977Z,9.33
2018-11-14T20:37:47.636Z,14.23
2018-11-14T20:40:17.483Z,11.63
2018-11-14T20:42:46.801Z,12.13
2018-11-14T20:45:17.216Z,13.67
2018-11-14T20:47:45.796Z,11.90
2018-11-14T20:50:18.381Z,13.67
2018-11-14T20:52:48.105Z,9.63
2018-11-14T20:55:16.957Z,11.03
2018-11-14T20:57:45.596Z,12.37
2018-11-14T21:00:18.844Z,12.30
2018-11-14T21:02:47.954Z,15.30
2018-11-14T21:05:16.635Z,13.23
2018-11-14T21:07:45.573Z,11.80
2018-11-14T21:10:15.412Z,12.50
2018-11-14T21:12:44.886Z,15.00
2018-11-14T21:15:17.065Z,13.73
2018-11-14T21:17:46.376Z,16.67
2018-11-14T21:20:14.956Z,14.80
2018-11-14T21:22:44.011Z,15.70
2018-11-14T21:25:13.749Z,15.17
2018-11-14T21:27:43.375Z,14.10
2018-11-14T21:30:15.003Z,18.80
2018-11-14T21:32:43.754Z,13.47
2018-11-14T21:35:16.447Z,12.83
2018-11-14T21:37:46.093Z,17.33
2018-11-14T21:40:14.667Z,17.13
2018-11-14T21:42:43.170Z,15.60
2018-11-14T21:45:13.831Z,20.13
2018-11-14T21:47:47.572Z,16.73
2018-11-14T21:50:17.003Z,17.27
2018-11-14T21:52:45.555Z,16.30
2018-11-14T21:55:13.966Z,18.30
2018-11-14T21:57:42.472Z,15.17
2018-11-14T22:00:14.014Z,14.50
2018-11-14T22:02:43.905Z,15.00
2018-11-14T22:05:12.286Z,16.97
2018-11-14T22:07:40.500Z,17.23
2018-11-14T22:10:11.543Z,18.70
2018-11-14T22:12:40.228Z,16.47
2018-11-14T22:15:09.197Z,15.90
2018-11-14T22:17:38.063Z,15.47
2018-11-14T22:20:07.899Z,22.37
2018-11-14T22:22:35.935Z,25.60
2018-11-14T22:25:04.263Z,25.33
2018-11-14T22:27:32.373Z,20.37
2018-11-14T22:30:00.492Z,22.17
2018-11-14T22:32:28.949Z,21.20
2018-11-14T22:34:57.370Z,25.30
2018-11-14T22:37:25.413Z,20.03
2018-11-14T22:39:53.702Z,22.30
2018-11-14T22:42:22.772Z,24.03
2018-11-14T22:44:51.413Z,25.80
2018-11-14T22:47:19.662Z,26.50
2018-11-14T22:49:48.448Z,23.57
2018-11-14T22:52:16.879Z,21.57
2018-11-14T22:54:45.021Z,28.27
2018-11-14T22:57:13.067Z,24.47
2018-11-14T22:59:41.423Z,24.90
2018-11-14T23:02:09.966Z,26.07
2018-11-14T23:04:38.040Z,23.87
2018-11-14T23:07:06.267Z,24.80
2018-11-14T23:09:34.365Z,30.10
2018-11-14T23:12:02.469Z,27.23
2018-11-14T23:14:31.035Z,26.57
2018-11-14T23:16:59.208Z,29.30
2018-11-14T23:19:27.776Z,25.07
2018-11-14T23:21:56.007Z,31.30
2018-11-14T23:24:24.057Z,26.50
2018-11-14T23:26:52.154Z,29.77
2018-11-14T23:29:20.295Z,25.23
2018-11-14T23:31:48.328Z,35.30
2018-11-14T23:34:16.462Z,30.70
2018-11-14T23:36:44.512Z,28.67
2018-11-14T23:39:13.682Z,31.87
2018-11-14T23:41:41.728Z,31.80
2018-11-14T23:44:10.136Z,25.67
2018-11-14T23:46:38.590Z,28.53
2018-11-14T23:49:06.833Z,31.00
2018-11-14T23:51:35.153Z,26.87
2018-11-14T23:54:03.169Z,25.57
2018-11-14T23:56:31.227Z,26.43
2018-11-14T23:58:59.238Z,30.40
